sensor_id;sensor_type;location;lat;lon;timestamp;pressure;altitude;pressure_sealevel;temperature;humidity
55466;BME280;41329;41.594;23.810;2022-09-20T00:01:14;95104.44;;;11.83;57.89
55466;BME280;41329;41.594;23.810;2022-09-20T00:03:42;95093.72;;;11.78;58.08
55466;BME280;41329;41.594;23.810;2022-09-20T00:06:11;95107.94;;;11.77;58.43
55466;BME280;41329;41.594;23.810;2022-09-20T00:08:37;95109.53;;;11.81;57.86
55466;BME280;41329;41.594;23.810;2022-09-20T00:11:05;95106.75;;;11.74;58.35
55466;BME280;41329;41.594;23.810;2022-09-20T00:13:31;95102.50;;;11.47;58.19
55466;BME280;41329;41.594;23.810;2022-09-20T00:15:57;95104.97;;;11.56;58.24
55466;BME280;41329;41.594;23.810;2022-09-20T00:18:23;95098.22;;;11.53;58.13
55466;BME280;41329;41.594;23.810;2022-09-20T00:20:50;95107.41;;;11.61;58.66
55466;BME280;41329;41.594;23.810;2022-09-20T00:23:15;95046.47;;;11.21;58.89
55466;BME280;41329;41.594;23.810;2022-09-20T00:25:42;95102.22;;;11.59;58.79
55466;BME280;41329;41.594;23.810;2022-09-20T00:28:08;95095.88;;;11.59;58.19
55466;BME280;41329;41.594;23.810;2022-09-20T00:30:35;95088.00;;;11.61;58.16
55466;BME280;41329;41.594;23.810;2022-09-20T00:33:01;95101.06;;;11.60;58.21
55466;BME280;41329;41.594;23.810;2022-09-20T00:35:28;95103.84;;;11.60;57.84
55466;BME280;41329;41.594;23.810;2022-09-20T00:37:54;95087.53;;;11.55;58.14
55466;BME280;41329;41.594;23.810;2022-09-20T00:40:21;95096.34;;;11.61;58.44
55466;BME280;41329;41.594;23.810;2022-09-20T00:42:48;95099.81;;;11.58;59.07
55466;BME280;41329;41.594;23.810;2022-09-20T00:45:28;95107.41;;;11.61;59.32
55466;BME280;41329;41.594;23.810;2022-09-20T00:55:50;95081.09;;;11.44;58.58
55466;BME280;41329;41.594;23.810;2022-09-20T00:58:17;95110.53;;;11.59;58.45
55466;BME280;41329;41.594;23.810;2022-09-20T01:00:44;95119.22;;;11.58;58.43
55466;BME280;41329;41.594;23.810;2022-09-20T01:03:13;95121.53;;;11.52;58.51
55466;BME280;41329;41.594;23.810;2022-09-20T01:05:41;95111.25;;;11.49;58.75
55466;BME280;41329;41.594;23.810;2022-09-20T01:08:08;95102.84;;;11.39;59.37
55466;BME280;41329;41.594;23.810;2022-09-20T01:10:35;95101.66;;;11.40;59.61
55466;BME280;41329;41.594;23.810;2022-09-20T01:13:00;95091.66;;;11.28;59.77
55466;BME280;41329;41.594;23.810;2022-09-20T01:15:26;95106.78;;;11.38;59.91
55466;BME280;41329;41.594;23.810;2022-09-20T01:17:55;95091.69;;;11.32;60.03
55466;BME280;41329;41.594;23.810;2022-09-20T01:20:28;95107.13;;;11.33;60.10
55466;BME280;41329;41.594;23.810;2022-09-20T01:28:44;95101.63;;;11.36;59.50
55466;BME280;41329;41.594;23.810;2022-09-20T01:31:22;95105.16;;;11.30;58.93
55466;BME280;41329;41.594;23.810;2022-09-20T01:34:03;95105.91;;;11.27;58.79
55466;BME280;41329;41.594;23.810;2022-09-20T01:42:32;95106.56;;;11.17;59.60
55466;BME280;41329;41.594;23.810;2022-09-20T01:45:23;95102.53;;;11.07;59.15
55466;BME280;41329;41.594;23.810;2022-09-20T02:07:27;95101.72;;;11.03;59.40
55466;BME280;41329;41.594;23.810;2022-09-20T02:21:18;95111.13;;;10.95;59.42
55466;BME280;41329;41.594;23.810;2022-09-20T02:37:44;95116.53;;;10.85;60.19
55466;BME280;41329;41.594;23.810;2022-09-20T02:43:00;95118.38;;;10.74;60.31
55466;BME280;41329;41.594;23.810;2022-09-20T02:48:02;95125.50;;;10.75;60.37
55466;BME280;41329;41.594;23.810;2022-09-20T02:50:54;95117.50;;;10.66;61.26
55466;BME280;41329;41.594;23.810;2022-09-20T02:53:46;95112.78;;;10.67;60.81
55466;BME280;41329;41.594;23.810;2022-09-20T02:59:08;95119.19;;;10.74;60.70
55466;BME280;41329;41.594;23.810;2022-09-20T03:01:58;95123.06;;;10.70;60.63
55466;BME280;41329;41.594;23.810;2022-09-20T03:07:28;95132.69;;;10.50;61.14
55466;BME280;41329;41.594;23.810;2022-09-20T03:18:32;95134.81;;;10.04;60.28
55466;BME280;41329;41.594;23.810;2022-09-20T03:21:23;95149.94;;;10.10;60.32
55466;BME280;41329;41.594;23.810;2022-09-20T03:24:17;95148.59;;;10.01;61.10
55466;BME280;41329;41.594;23.810;2022-09-20T03:46:26;95151.97;;;9.91;62.06
55466;BME280;41329;41.594;23.810;2022-09-20T03:51:40;95159.47;;;9.90;62.14
55466;BME280;41329;41.594;23.810;2022-09-20T03:57:26;95164.50;;;9.85;62.42
55466;BME280;41329;41.594;23.810;2022-09-20T04:02:56;95155.56;;;9.69;62.46
55466;BME280;41329;41.594;23.810;2022-09-20T04:05:44;95173.50;;;9.78;62.77
55466;BME280;41329;41.594;23.810;2022-09-20T04:12:13;95162.47;;;9.82;63.57
55466;BME280;41329;41.594;23.810;2022-09-20T04:26:02;95153.94;;;9.90;63.67
55466;BME280;41329;41.594;23.810;2022-09-20T04:28:46;95169.16;;;10.03;63.88
55466;BME280;41329;41.594;23.810;2022-09-20T04:31:35;95168.97;;;9.93;63.39
55466;BME280;41329;41.594;23.810;2022-09-20T04:34:13;95188.81;;;9.98;63.19
55466;BME280;41329;41.594;23.810;2022-09-20T04:37:01;95195.56;;;10.01;62.88
55466;BME280;41329;41.594;23.810;2022-09-20T04:39:54;95205.44;;;10.02;62.43
55466;BME280;41329;41.594;23.810;2022-09-20T04:45:16;95201.50;;;10.03;63.23
55466;BME280;41329;41.594;23.810;2022-09-20T04:58:36;95198.16;;;9.90;65.38
55466;BME280;41329;41.594;23.810;2022-09-20T05:17:33;95189.53;;;10.44;66.25
55466;BME280;41329;41.594;23.810;2022-09-20T05:20:32;95193.16;;;10.51;66.37
55466;BME280;41329;41.594;23.810;2022-09-20T05:29:07;95205.75;;;10.75;65.71
55466;BME280;41329;41.594;23.810;2022-09-20T05:47:56;95189.47;;;10.99;65.21
55466;BME280;41329;41.594;23.810;2022-09-20T05:50:43;95210.06;;;11.02;65.41
55466;BME280;41329;41.594;23.810;2022-09-20T05:56:39;95180.69;;;10.64;66.82
55466;BME280;41329;41.594;23.810;2022-09-20T05:59:23;95173.72;;;10.44;68.27
55466;BME280;41329;41.594;23.810;2022-09-20T06:04:40;95175.97;;;10.65;68.81
55466;BME280;41329;41.594;23.810;2022-09-20T06:13:14;95151.09;;;10.35;69.88
55466;BME280;41329;41.594;23.810;2022-09-20T06:18:30;95213.97;;;10.68;69.98
55466;BME280;41329;41.594;23.810;2022-09-20T06:24:00;95190.75;;;10.76;69.92
55466;BME280;41329;41.594;23.810;2022-09-20T06:26:32;95196.81;;;10.88;70.36
55466;BME280;41329;41.594;23.810;2022-09-20T06:29:03;95208.97;;;11.10;70.41
55466;BME280;41329;41.594;23.810;2022-09-20T06:31:31;95214.97;;;11.15;69.94
55466;BME280;41329;41.594;23.810;2022-09-20T06:34:00;95209.88;;;11.21;69.67
55466;BME280;41329;41.594;23.810;2022-09-20T06:36:32;95208.31;;;11.23;69.30
55466;BME280;41329;41.594;23.810;2022-09-20T06:39:27;95206.81;;;11.29;69.19
55466;BME280;41329;41.594;23.810;2022-09-20T06:42:16;95165.56;;;11.21;69.74
55466;BME280;41329;41.594;23.810;2022-09-20T06:44:41;95201.56;;;11.57;69.90
55466;BME280;41329;41.594;23.810;2022-09-20T06:47:11;95192.59;;;11.71;69.60
55466;BME280;41329;41.594;23.810;2022-09-20T06:49:37;95213.38;;;11.91;69.12
55466;BME280;41329;41.594;23.810;2022-09-20T06:52:06;95208.75;;;12.02;68.93
55466;BME280;41329;41.594;23.810;2022-09-20T06:54:32;95217.16;;;12.12;68.69
55466;BME280;41329;41.594;23.810;2022-09-20T06:57:02;95208.09;;;12.22;68.44
55466;BME280;41329;41.594;23.810;2022-09-20T06:59:28;95220.09;;;12.40;67.76
55466;BME280;41329;41.594;23.810;2022-09-20T07:01:54;95202.09;;;12.17;66.70
55466;BME280;41329;41.594;23.810;2022-09-20T07:04:20;95209.69;;;12.23;65.82
55466;BME280;41329;41.594;23.810;2022-09-20T07:06:46;95211.63;;;12.16;64.65
55466;BME280;41329;41.594;23.810;2022-09-20T07:09:12;95203.63;;;12.07;65.38
55466;BME280;41329;41.594;23.810;2022-09-20T07:11:37;95210.34;;;12.06;65.54
55466;BME280;41329;41.594;23.810;2022-09-20T07:14:03;95219.09;;;12.12;65.85
55466;BME280;41329;41.594;23.810;2022-09-20T07:16:29;95212.75;;;12.11;66.77
55466;BME280;41329;41.594;23.810;2022-09-20T07:18:54;95228.47;;;11.97;67.12
55466;BME280;41329;41.594;23.810;2022-09-20T07:21:20;95219.56;;;12.21;67.75
55466;BME280;41329;41.594;23.810;2022-09-20T07:23:46;95230.47;;;12.47;67.39
55466;BME280;41329;41.594;23.810;2022-09-20T07:26:18;95230.59;;;12.68;66.90
55466;BME280;41329;41.594;23.810;2022-09-20T07:28:44;95217.25;;;12.88;66.75
55466;BME280;41329;41.594;23.810;2022-09-20T07:31:09;95220.03;;;12.95;65.42
55466;BME280;41329;41.594;23.810;2022-09-20T07:33:34;95173.22;;;12.86;64.24
55466;BME280;41329;41.594;23.810;2022-09-20T07:36:01;95212.69;;;13.30;64.53
55466;BME280;41329;41.594;23.810;2022-09-20T07:38:26;95218.28;;;13.41;62.53
55466;BME280;41329;41.594;23.810;2022-09-20T07:40:56;95183.75;;;13.38;61.84
55466;BME280;41329;41.594;23.810;2022-09-20T07:43:23;95214.00;;;13.75;59.68
55466;BME280;41329;41.594;23.810;2022-09-20T07:45:53;95216.00;;;13.88;60.05
55466;BME280;41329;41.594;23.810;2022-09-20T07:48:25;95204.47;;;13.69;57.96
55466;BME280;41329;41.594;23.810;2022-09-20T07:50:52;95200.91;;;13.75;58.28
55466;BME280;41329;41.594;23.810;2022-09-20T07:53:18;95198.16;;;14.03;60.95
55466;BME280;41329;41.594;23.810;2022-09-20T07:56:04;95197.38;;;14.10;56.69
55466;BME280;41329;41.594;23.810;2022-09-20T07:58:32;95208.13;;;14.25;56.31
55466;BME280;41329;41.594;23.810;2022-09-20T08:01:00;95189.03;;;14.34;55.74
55466;BME280;41329;41.594;23.810;2022-09-20T08:03:29;95189.78;;;14.59;55.79
55466;BME280;41329;41.594;23.810;2022-09-20T08:06:03;95180.56;;;14.80;57.26
55466;BME280;41329;41.594;23.810;2022-09-20T08:08:36;95178.88;;;15.17;56.39
55466;BME280;41329;41.594;23.810;2022-09-20T08:11:06;95193.91;;;15.34;52.42
55466;BME280;41329;41.594;23.810;2022-09-20T08:13:43;95162.47;;;15.33;53.72
55466;BME280;41329;41.594;23.810;2022-09-20T08:16:10;95169.97;;;15.54;52.87
55466;BME280;41329;41.594;23.810;2022-09-20T08:18:36;95188.91;;;15.80;50.99
55466;BME280;41329;41.594;23.810;2022-09-20T08:21:06;95171.69;;;15.92;52.07
55466;BME280;41329;41.594;23.810;2022-09-20T08:23:36;95172.25;;;16.20;51.59
55466;BME280;41329;41.594;23.810;2022-09-20T08:26:02;95171.72;;;16.39;50.66
55466;BME280;41329;41.594;23.810;2022-09-20T08:28:29;95159.78;;;16.35;49.93
55466;BME280;41329;41.594;23.810;2022-09-20T08:31:06;95172.41;;;16.54;49.41
55466;BME280;41329;41.594;23.810;2022-09-20T08:33:32;95164.34;;;16.63;49.38
55466;BME280;41329;41.594;23.810;2022-09-20T08:35:58;95157.38;;;16.81;50.83
55466;BME280;41329;41.594;23.810;2022-09-20T08:38:25;95172.56;;;17.14;48.60
55466;BME280;41329;41.594;23.810;2022-09-20T08:41:23;95168.69;;;17.34;47.98
55466;BME280;41329;41.594;23.810;2022-09-20T08:43:55;95169.31;;;17.52;48.51
55466;BME280;41329;41.594;23.810;2022-09-20T08:46:24;95157.06;;;17.69;46.83
55466;BME280;41329;41.594;23.810;2022-09-20T08:48:51;95133.31;;;17.81;46.74
55466;BME280;41329;41.594;23.810;2022-09-20T08:51:17;95133.63;;;17.87;45.23
55466;BME280;41329;41.594;23.810;2022-09-20T08:53:51;95130.75;;;17.94;43.83
55466;BME280;41329;41.594;23.810;2022-09-20T08:56:19;95141.34;;;17.79;44.15
55466;BME280;41329;41.594;23.810;2022-09-20T08:58:45;95135.13;;;17.95;44.48
55466;BME280;41329;41.594;23.810;2022-09-20T09:01:22;95139.41;;;18.26;42.89
55466;BME280;41329;41.594;23.810;2022-09-20T09:04:41;95127.94;;;18.17;43.67
55466;BME280;41329;41.594;23.810;2022-09-20T09:06:42;95147.34;;;18.54;44.01
55466;BME280;41329;41.594;23.810;2022-09-20T09:09:16;95140.41;;;18.62;42.30
55466;BME280;41329;41.594;23.810;2022-09-20T09:11:43;95123.25;;;18.79;43.42
55466;BME280;41329;41.594;23.810;2022-09-20T09:14:27;95111.84;;;18.90;41.24
55466;BME280;41329;41.594;23.810;2022-09-20T09:17:14;95105.28;;;18.96;40.92
55466;BME280;41329;41.594;23.810;2022-09-20T09:19:44;95116.59;;;19.12;39.61
55466;BME280;41329;41.594;23.810;2022-09-20T09:22:10;95098.81;;;19.19;39.81
55466;BME280;41329;41.594;23.810;2022-09-20T09:24:36;95088.31;;;19.23;38.43
55466;BME280;41329;41.594;23.810;2022-09-20T09:27:19;95105.38;;;19.51;40.13
55466;BME280;41329;41.594;23.810;2022-09-20T09:29:53;95104.44;;;19.74;38.44
55466;BME280;41329;41.594;23.810;2022-09-20T09:32:27;95095.78;;;19.84;36.94
55466;BME280;41329;41.594;23.810;2022-09-20T09:34:54;95089.13;;;19.94;39.02
55466;BME280;41329;41.594;23.810;2022-09-20T09:37:25;95042.44;;;19.84;37.54
55466;BME280;41329;41.594;23.810;2022-09-20T09:40:07;95078.00;;;20.07;36.65
55466;BME280;41329;41.594;23.810;2022-09-20T09:42:33;95078.56;;;20.18;36.25
55466;BME280;41329;41.594;23.810;2022-09-20T09:45:22;95068.47;;;20.20;35.93
55466;BME280;41329;41.594;23.810;2022-09-20T09:47:50;95064.13;;;20.32;37.07
55466;BME280;41329;41.594;23.810;2022-09-20T09:50:30;95063.66;;;20.65;38.14
55466;BME280;41329;41.594;23.810;2022-09-20T09:53:02;95063.41;;;20.88;34.24
55466;BME280;41329;41.594;23.810;2022-09-20T09:55:41;95061.19;;;20.67;35.31
55466;BME280;41329;41.594;23.810;2022-09-20T09:58:24;95064.25;;;20.73;34.47
55466;BME280;41329;41.594;23.810;2022-09-20T10:00:56;95057.06;;;20.72;34.39
55466;BME280;41329;41.594;23.810;2022-09-20T10:03:31;95063.38;;;21.04;35.25
55466;BME280;41329;41.594;23.810;2022-09-20T10:06:22;95063.31;;;21.20;35.43
55466;BME280;41329;41.594;23.810;2022-09-20T10:09:04;95074.88;;;21.63;36.78
55466;BME280;41329;41.594;23.810;2022-09-20T10:17:31;95075.78;;;21.60;32.85
55466;BME280;41329;41.594;23.810;2022-09-20T10:20:32;95073.06;;;21.57;33.41
55466;BME280;41329;41.594;23.810;2022-09-20T10:26:11;95076.84;;;22.04;31.29
55466;BME280;41329;41.594;23.810;2022-09-20T10:31:38;95072.78;;;22.17;33.10
55466;BME280;41329;41.594;23.810;2022-09-20T10:36:53;95053.78;;;22.55;31.64
55466;BME280;41329;41.594;23.810;2022-09-20T10:39:31;95054.41;;;22.72;30.63
55466;BME280;41329;41.594;23.810;2022-09-20T10:42:05;95059.41;;;22.43;31.11
55466;BME280;41329;41.594;23.810;2022-09-20T10:50:35;95048.84;;;22.22;30.08
55466;BME280;41329;41.594;23.810;2022-09-20T10:56:28;95038.72;;;22.24;30.20
55466;BME280;41329;41.594;23.810;2022-09-20T10:59:20;95019.16;;;21.83;30.63
55466;BME280;41329;41.594;23.810;2022-09-20T11:02:01;95031.63;;;22.20;30.79
55466;BME280;41329;41.594;23.810;2022-09-20T11:13:05;95029.13;;;22.22;30.02
55466;BME280;41329;41.594;23.810;2022-09-20T11:15:42;94966.50;;;22.18;30.03
55466;BME280;41329;41.594;23.810;2022-09-20T11:18:24;95017.28;;;22.73;30.83
55466;BME280;41329;41.594;23.810;2022-09-20T11:26:21;95014.16;;;22.71;28.92
55466;BME280;41329;41.594;23.810;2022-09-20T11:28:52;95000.56;;;22.79;31.39
55466;BME280;41329;41.594;23.810;2022-09-20T11:31:31;95005.13;;;22.98;29.08
55466;BME280;41329;41.594;23.810;2022-09-20T11:34:22;95000.03;;;22.93;28.90
55466;BME280;41329;41.594;23.810;2022-09-20T11:36:56;94996.91;;;22.91;29.42
55466;BME280;41329;41.594;23.810;2022-09-20T11:42:02;94946.97;;;22.79;29.13
55466;BME280;41329;41.594;23.810;2022-09-20T11:44:30;94987.72;;;23.21;30.70
55466;BME280;41329;41.594;23.810;2022-09-20T11:58:12;94984.00;;;23.24;28.66
55466;BME280;41329;41.594;23.810;2022-09-20T12:00:43;94980.63;;;23.17;28.53
55466;BME280;41329;41.594;23.810;2022-09-20T12:05:59;94990.00;;;23.14;28.35
55466;BME280;41329;41.594;23.810;2022-09-20T12:08:35;94969.53;;;23.01;28.42
55466;BME280;41329;41.594;23.810;2022-09-20T12:11:10;94970.06;;;22.86;28.20
55466;BME280;41329;41.594;23.810;2022-09-20T12:13:38;94939.81;;;22.87;28.24
55466;BME280;41329;41.594;23.810;2022-09-20T12:16:14;94974.25;;;23.25;28.50
55466;BME280;41329;41.594;23.810;2022-09-20T12:19:03;94973.00;;;23.57;30.65
55466;BME280;41329;41.594;23.810;2022-09-20T12:26:52;94963.19;;;23.70;28.16
55466;BME280;41329;41.594;23.810;2022-09-20T12:31:51;94975.34;;;23.49;30.10
55466;BME280;41329;41.594;23.810;2022-09-20T12:39:27;94984.94;;;23.30;28.22
55466;BME280;41329;41.594;23.810;2022-09-20T12:41:54;94981.63;;;23.23;28.84
55466;BME280;41329;41.594;23.810;2022-09-20T12:46:57;94971.44;;;22.60;28.90
55466;BME280;41329;41.594;23.810;2022-09-20T13:11:09;94973.06;;;22.49;27.11
55466;BME280;41329;41.594;23.810;2022-09-20T13:13:50;94973.91;;;22.24;28.18
55466;BME280;41329;41.594;23.810;2022-09-20T13:16:28;94953.16;;;22.31;27.42
55466;BME280;41329;41.594;23.810;2022-09-20T13:19:17;94992.78;;;22.36;27.33
55466;BME280;41329;41.594;23.810;2022-09-20T13:21:57;94971.38;;;22.39;26.86
55466;BME280;41329;41.594;23.810;2022-09-20T13:24:31;94977.13;;;22.35;26.55
55466;BME280;41329;41.594;23.810;2022-09-20T13:27:04;94981.56;;;22.24;26.35
55466;BME280;41329;41.594;23.810;2022-09-20T13:29:34;94969.50;;;22.23;27.00
55466;BME280;41329;41.594;23.810;2022-09-20T13:32:24;94972.59;;;22.50;27.48
55466;BME280;41329;41.594;23.810;2022-09-20T13:37:36;94979.38;;;22.53;27.41
55466;BME280;41329;41.594;23.810;2022-09-20T13:40:03;94971.50;;;22.35;26.31
55466;BME280;41329;41.594;23.810;2022-09-20T13:42:31;94976.94;;;22.64;27.21
55466;BME280;41329;41.594;23.810;2022-09-20T13:45:01;94978.81;;;22.79;26.91
55466;BME280;41329;41.594;23.810;2022-09-20T13:47:31;94976.16;;;22.85;26.51
55466;BME280;41329;41.594;23.810;2022-09-20T13:50:15;94964.25;;;22.81;26.11
55466;BME280;41329;41.594;23.810;2022-09-20T13:52:47;94974.38;;;22.78;26.37
55466;BME280;41329;41.594;23.810;2022-09-20T13:55:39;94975.69;;;22.86;26.88
55466;BME280;41329;41.594;23.810;2022-09-20T13:58:30;94974.72;;;22.80;25.59
55466;BME280;41329;41.594;23.810;2022-09-20T14:01:04;94990.25;;;22.29;26.69
55466;BME280;41329;41.594;23.810;2022-09-20T14:03:34;94977.84;;;22.27;26.95
55466;BME280;41329;41.594;23.810;2022-09-20T14:06:03;94983.38;;;22.64;26.71
55466;BME280;41329;41.594;23.810;2022-09-20T14:08:36;94976.88;;;22.76;27.28
55466;BME280;41329;41.594;23.810;2022-09-20T14:11:14;94973.53;;;22.90;26.44
55466;BME280;41329;41.594;23.810;2022-09-20T14:13:42;94969.59;;;22.88;27.02
55466;BME280;41329;41.594;23.810;2022-09-20T14:16:09;94974.59;;;23.06;25.98
55466;BME280;41329;41.594;23.810;2022-09-20T14:18:39;94977.88;;;23.04;25.93
55466;BME280;41329;41.594;23.810;2022-09-20T14:21:07;94974.88;;;23.20;26.79
55466;BME280;41329;41.594;23.810;2022-09-20T14:26:24;94972.22;;;23.04;25.12
55466;BME280;41329;41.594;23.810;2022-09-20T14:28:50;94971.63;;;23.09;26.58
55466;BME280;41329;41.594;23.810;2022-09-20T14:31:28;94959.88;;;23.32;26.86
55466;BME280;41329;41.594;23.810;2022-09-20T14:33:57;94965.72;;;23.38;25.03
55466;BME280;41329;41.594;23.810;2022-09-20T14:36:28;94983.84;;;23.28;24.71
55466;BME280;41329;41.594;23.810;2022-09-20T14:38:58;94965.78;;;23.25;25.00
55466;BME280;41329;41.594;23.810;2022-09-20T14:41:37;94980.03;;;23.52;25.73
55466;BME280;41329;41.594;23.810;2022-09-20T14:44:05;94953.00;;;23.73;24.55
55466;BME280;41329;41.594;23.810;2022-09-20T14:46:34;94983.56;;;24.05;24.34
55466;BME280;41329;41.594;23.810;2022-09-20T14:51:52;94983.53;;;23.96;24.01
55466;BME280;41329;41.594;23.810;2022-09-20T14:54:29;94972.13;;;23.99;23.20
55466;BME280;41329;41.594;23.810;2022-09-20T14:56:56;94983.28;;;24.12;23.34
55466;BME280;41329;41.594;23.810;2022-09-20T14:59:26;94981.13;;;24.34;23.40
55466;BME280;41329;41.594;23.810;2022-09-20T15:01:55;94982.63;;;24.83;23.94
55466;BME280;41329;41.594;23.810;2022-09-20T15:04:22;94963.41;;;25.05;21.90
55466;BME280;41329;41.594;23.810;2022-09-20T15:06:49;94961.38;;;24.97;22.55
55466;BME280;41329;41.594;23.810;2022-09-20T15:09:17;94976.88;;;25.46;22.43
55466;BME280;41329;41.594;23.810;2022-09-20T15:11:43;94978.16;;;25.36;21.82
55466;BME280;41329;41.594;23.810;2022-09-20T15:14:09;94981.16;;;25.33;23.41
55466;BME280;41329;41.594;23.810;2022-09-20T15:16:37;94984.00;;;25.74;22.26
55466;BME280;41329;41.594;23.810;2022-09-20T15:19:02;94981.28;;;25.98;21.44
55466;BME280;41329;41.594;23.810;2022-09-20T15:21:35;94985.09;;;25.77;21.06
55466;BME280;41329;41.594;23.810;2022-09-20T15:24:01;94980.75;;;25.67;21.96
55466;BME280;41329;41.594;23.810;2022-09-20T15:26:26;94979.22;;;25.57;21.07
55466;BME280;41329;41.594;23.810;2022-09-20T15:29:03;94974.56;;;25.36;21.71
55466;BME280;41329;41.594;23.810;2022-09-20T15:31:30;94986.47;;;25.99;22.99
55466;BME280;41329;41.594;23.810;2022-09-20T15:33:58;94989.91;;;26.36;21.51
55466;BME280;41329;41.594;23.810;2022-09-20T15:36:27;94990.16;;;26.70;21.35
55466;BME280;41329;41.594;23.810;2022-09-20T15:38:59;94985.81;;;26.60;20.67
55466;BME280;41329;41.594;23.810;2022-09-20T15:41:27;94983.72;;;26.37;20.96
55466;BME280;41329;41.594;23.810;2022-09-20T15:43:56;94995.56;;;26.03;21.49
55466;BME280;41329;41.594;23.810;2022-09-20T15:46:27;94998.22;;;26.16;20.58
55466;BME280;41329;41.594;23.810;2022-09-20T15:49:00;94952.03;;;25.83;20.93
55466;BME280;41329;41.594;23.810;2022-09-20T15:51:37;94963.97;;;25.96;21.12
55466;BME280;41329;41.594;23.810;2022-09-20T15:54:05;95003.09;;;25.74;21.42
55466;BME280;41329;41.594;23.810;2022-09-20T15:56:33;94970.59;;;25.24;21.80
55466;BME280;41329;41.594;23.810;2022-09-20T15:59:10;94976.13;;;25.19;22.29
55466;BME280;41329;41.594;23.810;2022-09-20T16:01:43;95003.03;;;25.32;21.63
55466;BME280;41329;41.594;23.810;2022-09-20T16:04:15;95002.25;;;24.96;22.05
55466;BME280;41329;41.594;23.810;2022-09-20T16:06:43;94998.56;;;24.32;22.74
55466;BME280;41329;41.594;23.810;2022-09-20T16:09:09;94996.41;;;23.57;22.97
55466;BME280;41329;41.594;23.810;2022-09-20T16:11:35;95013.72;;;23.38;23.87
55466;BME280;41329;41.594;23.810;2022-09-20T16:14:00;95019.50;;;23.13;24.27
55466;BME280;41329;41.594;23.810;2022-09-20T16:16:28;95023.19;;;22.66;24.87
55466;BME280;41329;41.594;23.810;2022-09-20T16:18:54;95017.50;;;22.32;25.40
55466;BME280;41329;41.594;23.810;2022-09-20T16:21:39;95006.31;;;22.07;26.25
55466;BME280;41329;41.594;23.810;2022-09-20T16:24:06;95025.13;;;21.98;26.76
55466;BME280;41329;41.594;23.810;2022-09-20T16:26:32;95029.63;;;21.83;26.97
55466;BME280;41329;41.594;23.810;2022-09-20T16:28:59;95033.09;;;21.62;27.19
55466;BME280;41329;41.594;23.810;2022-09-20T16:31:33;95029.16;;;21.47;27.83
55466;BME280;41329;41.594;23.810;2022-09-20T16:34:04;95035.06;;;21.11;28.24
55466;BME280;41329;41.594;23.810;2022-09-20T16:36:32;95033.88;;;20.96;28.55
55466;BME280;41329;41.594;23.810;2022-09-20T16:38:58;95043.94;;;20.81;28.93
55466;BME280;41329;41.594;23.810;2022-09-20T16:41:25;95036.09;;;20.60;29.00
55466;BME280;41329;41.594;23.810;2022-09-20T16:43:51;95040.75;;;20.51;29.14
55466;BME280;41329;41.594;23.810;2022-09-20T16:46:21;95051.06;;;20.41;29.53
55466;BME280;41329;41.594;23.810;2022-09-20T16:48:49;95053.34;;;20.30;29.38
55466;BME280;41329;41.594;23.810;2022-09-20T16:51:17;95055.66;;;20.19;30.51
55466;BME280;41329;41.594;23.810;2022-09-20T16:53:43;95054.38;;;20.04;30.99
55466;BME280;41329;41.594;23.810;2022-09-20T16:56:29;95066.38;;;19.73;31.49
55466;BME280;41329;41.594;23.810;2022-09-20T16:58:55;95074.75;;;19.41;32.22
55466;BME280;41329;41.594;23.810;2022-09-20T17:01:21;95067.63;;;19.17;32.46
55466;BME280;41329;41.594;23.810;2022-09-20T17:03:47;95029.47;;;18.84;32.71
55466;BME280;41329;41.594;23.810;2022-09-20T17:06:13;95081.94;;;19.03;32.99
55466;BME280;41329;41.594;23.810;2022-09-20T17:08:41;95065.53;;;18.82;33.41
55466;BME280;41329;41.594;23.810;2022-09-20T17:13:38;95085.38;;;18.71;34.10
55466;BME280;41329;41.594;23.810;2022-09-20T17:16:12;95081.25;;;18.56;34.26
55466;BME280;41329;41.594;23.810;2022-09-20T17:18:39;95096.84;;;18.57;34.22
55466;BME280;41329;41.594;23.810;2022-09-20T17:21:13;95068.09;;;18.07;34.52
55466;BME280;41329;41.594;23.810;2022-09-20T17:23:41;95117.25;;;18.12;34.94
55466;BME280;41329;41.594;23.810;2022-09-20T17:26:18;95103.91;;;17.96;34.72
55466;BME280;41329;41.594;23.810;2022-09-20T17:28:46;95099.88;;;17.97;35.11
55466;BME280;41329;41.594;23.810;2022-09-20T17:31:14;95107.38;;;18.04;35.33
55466;BME280;41329;41.594;23.810;2022-09-20T17:33:41;95114.63;;;18.01;35.51
55466;BME280;41329;41.594;23.810;2022-09-20T17:36:07;95126.13;;;18.07;35.46
55466;BME280;41329;41.594;23.810;2022-09-20T17:38:34;95117.91;;;17.96;35.85
55466;BME280;41329;41.594;23.810;2022-09-20T17:41:21;95145.94;;;17.92;35.79
55466;BME280;41329;41.594;23.810;2022-09-20T17:43:47;95141.78;;;17.77;35.99
55466;BME280;41329;41.594;23.810;2022-09-20T17:46:23;95116.50;;;17.54;36.31
55466;BME280;41329;41.594;23.810;2022-09-20T17:48:55;95150.41;;;17.60;36.56
55466;BME280;41329;41.594;23.810;2022-09-20T17:51:26;95138.63;;;17.45;36.65
55466;BME280;41329;41.594;23.810;2022-09-20T17:53:52;95146.66;;;17.43;36.99
55466;BME280;41329;41.594;23.810;2022-09-20T17:56:20;95162.41;;;17.27;37.26
55466;BME280;41329;41.594;23.810;2022-09-20T17:58:48;95119.97;;;17.05;37.19
55466;BME280;41329;41.594;23.810;2022-09-20T18:01:16;95159.28;;;17.21;37.73
55466;BME280;41329;41.594;23.810;2022-09-20T18:03:45;95156.66;;;17.07;38.14
55466;BME280;41329;41.594;23.810;2022-09-20T18:06:21;95172.13;;;17.15;38.33
55466;BME280;41329;41.594;23.810;2022-09-20T18:11:16;95163.47;;;17.06;38.09
55466;BME280;41329;41.594;23.810;2022-09-20T18:13:42;95162.31;;;17.00;38.26
55466;BME280;41329;41.594;23.810;2022-09-20T18:16:09;95181.00;;;17.10;38.49
55466;BME280;41329;41.594;23.810;2022-09-20T18:18:36;95187.00;;;17.09;38.47